sensor_id;sensor_type;location;lat;lon;timestamp;P1;durP1;ratioP1;P2;durP2;ratioP2
15327;SDS011;7764;51.430;6.840;2023-04-15T00:00:35;16.87;;;10.07;;
15327;SDS011;7764;51.430;6.840;2023-04-15T00:03:02;18.30;;;10.10;;
15327;SDS011;7764;51.430;6.840;2023-04-15T00:05:30;18.90;;;10.93;;
15327;SDS011;7764;51.430;6.840;2023-04-15T00:07:57;16.77;;;10.27;;
15327;SDS011;7764;51.430;6.840;2023-04-15T00:10:25;16.27;;;10.43;;
15327;SDS011;7764;51.430;6.840;2023-04-15T00:12:53;14.73;;;10.40;;
15327;SDS011;7764;51.430;6.840;2023-04-15T00:15:19;21.03;;;10.57;;
15327;SDS011;7764;51.430;6.840;2023-04-15T00:17:48;16.63;;;10.00;;
15327;SDS011;7764;51.430;6.840;2023-04-15T00:20:16;13.67;;;10.17;;
15327;SDS011;7764;51.430;6.840;2023-04-15T00:22:44;15.97;;;10.40;;
15327;SDS011;7764;51.430;6.840;2023-04-15T00:25:11;15.37;;;10.27;;
15327;SDS011;7764;51.430;6.840;2023-04-15T00:27:39;15.43;;;9.97;;
15327;SDS011;7764;51.430;6.840;2023-04-15T00:30:06;17.93;;;10.90;;
15327;SDS011;7764;51.430;6.840;2023-04-15T00:32:33;19.17;;;10.53;;
15327;SDS011;7764;51.430;6.840;2023-04-15T00:35:00;21.43;;;10.83;;
15327;SDS011;7764;51.430;6.840;2023-04-15T00:37:28;19.70;;;10.90;;
15327;SDS011;7764;51.430;6.840;2023-04-15T00:39:56;17.60;;;11.20;;
15327;SDS011;7764;51.430;6.840;2023-04-15T00:42:23;18.37;;;11.83;;
15327;SDS011;7764;51.430;6.840;2023-04-15T00:44:51;19.67;;;11.30;;
15327;SDS011;7764;51.430;6.840;2023-04-15T00:47:18;17.33;;;10.83;;
15327;SDS011;7764;51.430;6.840;2023-04-15T00:49:46;16.20;;;10.50;;
15327;SDS011;7764;51.430;6.840;2023-04-15T00:52:13;15.70;;;10.90;;
15327;SDS011;7764;51.430;6.840;2023-04-15T00:54:40;16.57;;;10.80;;
15327;SDS011;7764;51.430;6.840;2023-04-15T00:57:08;17.77;;;11.30;;
15327;SDS011;7764;51.430;6.840;2023-04-15T00:59:35;17.83;;;11.40;;
15327;SDS011;7764;51.430;6.840;2023-04-15T01:02:02;16.63;;;10.90;;
15327;SDS011;7764;51.430;6.840;2023-04-15T01:04:29;18.23;;;10.73;;
15327;SDS011;7764;51.430;6.840;2023-04-15T01:06:56;18.23;;;10.67;;
15327;SDS011;7764;51.430;6.840;2023-04-15T01:09:23;16.87;;;11.50;;
15327;SDS011;7764;51.430;6.840;2023-04-15T01:11:50;18.03;;;11.00;;
15327;SDS011;7764;51.430;6.840;2023-04-15T01:14:19;18.10;;;11.37;;
15327;SDS011;7764;51.430;6.840;2023-04-15T01:16:46;18.90;;;11.20;;
15327;SDS011;7764;51.430;6.840;2023-04-15T01:19:13;17.43;;;11.17;;
15327;SDS011;7764;51.430;6.840;2023-04-15T01:21:42;17.57;;;11.20;;
15327;SDS011;7764;51.430;6.840;2023-04-15T01:24:10;15.90;;;11.17;;
15327;SDS011;7764;51.430;6.840;2023-04-15T01:26:40;19.37;;;11.50;;
15327;SDS011;7764;51.430;6.840;2023-04-15T01:29:07;17.67;;;11.57;;
15327;SDS011;7764;51.430;6.840;2023-04-15T01:31:34;19.47;;;11.67;;
15327;SDS011;7764;51.430;6.840;2023-04-15T01:34:01;18.60;;;11.97;;
15327;SDS011;7764;51.430;6.840;2023-04-15T01:36:28;17.60;;;11.97;;
15327;SDS011;7764;51.430;6.840;2023-04-15T01:38:56;19.13;;;12.30;;
15327;SDS011;7764;51.430;6.840;2023-04-15T01:41:24;19.07;;;12.30;;
15327;SDS011;7764;51.430;6.840;2023-04-15T01:43:53;17.40;;;11.97;;
15327;SDS011;7764;51.430;6.840;2023-04-15T01:46:21;16.63;;;11.63;;
15327;SDS011;7764;51.430;6.840;2023-04-15T01:48:47;19.63;;;12.43;;
15327;SDS011;7764;51.430;6.840;2023-04-15T01:51:14;17.80;;;12.73;;
15327;SDS011;7764;51.430;6.840;2023-04-15T01:53:42;18.93;;;12.67;;
15327;SDS011;7764;51.430;6.840;2023-04-15T01:56:08;19.67;;;12.87;;
15327;SDS011;7764;51.430;6.840;2023-04-15T01:58:36;18.77;;;12.73;;
15327;SDS011;7764;51.430;6.840;2023-04-15T02:01:05;20.67;;;13.30;;
15327;SDS011;7764;51.430;6.840;2023-04-15T02:03:34;20.73;;;13.37;;
15327;SDS011;7764;51.430;6.840;2023-04-15T02:06:01;20.50;;;13.30;;
15327;SDS011;7764;51.430;6.840;2023-04-15T02:08:28;19.73;;;13.77;;
15327;SDS011;7764;51.430;6.840;2023-04-15T02:10:55;21.57;;;13.23;;
15327;SDS011;7764;51.430;6.840;2023-04-15T02:13:22;18.63;;;12.90;;
15327;SDS011;7764;51.430;6.840;2023-04-15T02:15:49;19.00;;;13.73;;
15327;SDS011;7764;51.430;6.840;2023-04-15T02:18:17;21.80;;;13.20;;
15327;SDS011;7764;51.430;6.840;2023-04-15T02:20:44;26.03;;;13.50;;
15327;SDS011;7764;51.430;6.840;2023-04-15T02:23:12;20.37;;;13.90;;
15327;SDS011;7764;51.430;6.840;2023-04-15T02:25:39;18.30;;;13.33;;
15327;SDS011;7764;51.430;6.840;2023-04-15T02:28:06;21.30;;;13.80;;
15327;SDS011;7764;51.430;6.840;2023-04-15T02:30:33;22.27;;;14.20;;
15327;SDS011;7764;51.430;6.840;2023-04-15T02:33:00;20.30;;;13.83;;
15327;SDS011;7764;51.430;6.840;2023-04-15T02:35:28;19.30;;;14.00;;
15327;SDS011;7764;51.430;6.840;2023-04-15T02:37:55;21.00;;;15.23;;
15327;SDS011;7764;51.430;6.840;2023-04-15T02:40:22;24.73;;;15.50;;
15327;SDS011;7764;51.430;6.840;2023-04-15T02:42:49;24.07;;;16.03;;
15327;SDS011;7764;51.430;6.840;2023-04-15T02:45:16;21.80;;;15.73;;
15327;SDS011;7764;51.430;6.840;2023-04-15T02:47:45;20.33;;;14.77;;
15327;SDS011;7764;51.430;6.840;2023-04-15T02:50:12;22.97;;;15.97;;
15327;SDS011;7764;51.430;6.840;2023-04-15T02:55:08;26.93;;;15.17;;
15327;SDS011;7764;51.430;6.840;2023-04-15T02:57:35;21.77;;;15.70;;
15327;SDS011;7764;51.430;6.840;2023-04-15T03:00:03;22.37;;;15.43;;
15327;SDS011;7764;51.430;6.840;2023-04-15T03:02:33;25.23;;;16.17;;
15327;SDS011;7764;51.430;6.840;2023-04-15T03:05:00;25.93;;;16.33;;
15327;SDS011;7764;51.430;6.840;2023-04-15T03:07:28;22.07;;;15.67;;
15327;SDS011;7764;51.430;6.840;2023-04-15T03:09:56;21.57;;;16.10;;
15327;SDS011;7764;51.430;6.840;2023-04-15T03:12:23;24.13;;;15.70;;
15327;SDS011;7764;51.430;6.840;2023-04-15T03:14:50;24.07;;;16.43;;
15327;SDS011;7764;51.430;6.840;2023-04-15T03:17:16;29.97;;;17.90;;
15327;SDS011;7764;51.430;6.840;2023-04-15T03:19:43;25.70;;;17.13;;
15327;SDS011;7764;51.430;6.840;2023-04-15T03:22:10;28.83;;;16.53;;
15327;SDS011;7764;51.430;6.840;2023-04-15T03:24:37;21.60;;;15.50;;
15327;SDS011;7764;51.430;6.840;2023-04-15T03:27:05;22.90;;;15.53;;
15327;SDS011;7764;51.430;6.840;2023-04-15T03:29:32;22.17;;;15.87;;
15327;SDS011;7764;51.430;6.840;2023-04-15T03:31:59;21.77;;;15.37;;
15327;SDS011;7764;51.430;6.840;2023-04-15T03:34:26;22.03;;;15.63;;
15327;SDS011;7764;51.430;6.840;2023-04-15T03:36:53;20.60;;;15.30;;
15327;SDS011;7764;51.430;6.840;2023-04-15T03:39:21;25.37;;;16.23;;
15327;SDS011;7764;51.430;6.840;2023-04-15T03:41:48;21.20;;;15.77;;
15327;SDS011;7764;51.430;6.840;2023-04-15T03:44:16;21.63;;;15.47;;
15327;SDS011;7764;51.430;6.840;2023-04-15T03:46:43;22.23;;;16.33;;
15327;SDS011;7764;51.430;6.840;2023-04-15T03:49:10;21.20;;;15.20;;
15327;SDS011;7764;51.430;6.840;2023-04-15T03:51:37;22.43;;;16.83;;
15327;SDS011;7764;51.430;6.840;2023-04-15T03:54:03;22.43;;;16.33;;
15327;SDS011;7764;51.430;6.840;2023-04-15T03:56:30;23.47;;;16.67;;
15327;SDS011;7764;51.430;6.840;2023-04-15T03:58:57;22.37;;;16.40;;
15327;SDS011;7764;51.430;6.840;2023-04-15T04:01:25;24.03;;;15.67;;
15327;SDS011;7764;51.430;6.840;2023-04-15T04:03:52;22.87;;;16.50;;
15327;SDS011;7764;51.430;6.840;2023-04-15T04:06:19;24.67;;;16.87;;
15327;SDS011;7764;51.430;6.840;2023-04-15T04:08:46;24.23;;;16.33;;
15327;SDS011;7764;51.430;6.840;2023-04-15T04:11:13;20.47;;;15.23;;
15327;SDS011;7764;51.430;6.840;2023-04-15T04:13:40;19.90;;;15.60;;
15327;SDS011;7764;51.430;6.840;2023-04-15T04:16:07;22.47;;;15.37;;
15327;SDS011;7764;51.430;6.840;2023-04-15T04:18:35;21.23;;;16.33;;
15327;SDS011;7764;51.430;6.840;2023-04-15T04:21:02;22.63;;;16.00;;
15327;SDS011;7764;51.430;6.840;2023-04-15T04:23:29;20.60;;;15.40;;
15327;SDS011;7764;51.430;6.840;2023-04-15T04:25:56;20.13;;;14.67;;
15327;SDS011;7764;51.430;6.840;2023-04-15T04:28:23;20.70;;;15.07;;
15327;SDS011;7764;51.430;6.840;2023-04-15T04:30:49;18.97;;;14.00;;
15327;SDS011;7764;51.430;6.840;2023-04-15T04:33:16;19.53;;;14.40;;
15327;SDS011;7764;51.430;6.840;2023-04-15T04:35:44;21.90;;;15.00;;
15327;SDS011;7764;51.430;6.840;2023-04-15T04:38:11;22.90;;;15.20;;
15327;SDS011;7764;51.430;6.840;2023-04-15T04:40:38;21.43;;;15.20;;
15327;SDS011;7764;51.430;6.840;2023-04-15T04:43:05;20.13;;;15.07;;
15327;SDS011;7764;51.430;6.840;2023-04-15T04:45:32;22.33;;;15.23;;
15327;SDS011;7764;51.430;6.840;2023-04-15T04:47:59;25.07;;;15.37;;
15327;SDS011;7764;51.430;6.840;2023-04-15T04:50:25;24.47;;;16.03;;
15327;SDS011;7764;51.430;6.840;2023-04-15T04:52:54;22.80;;;15.77;;
15327;SDS011;7764;51.430;6.840;2023-04-15T04:55:20;23.13;;;15.63;;
15327;SDS011;7764;51.430;6.840;2023-04-15T04:57:47;22.27;;;15.97;;
15327;SDS011;7764;51.430;6.840;2023-04-15T05:00:14;21.40;;;15.17;;
15327;SDS011;7764;51.430;6.840;2023-04-15T05:02:41;21.30;;;15.43;;
15327;SDS011;7764;51.430;6.840;2023-04-15T05:05:09;21.90;;;15.67;;
15327;SDS011;7764;51.430;6.840;2023-04-15T05:07:37;24.10;;;15.20;;
15327;SDS011;7764;51.430;6.840;2023-04-15T05:10:06;23.40;;;15.30;;
15327;SDS011;7764;51.430;6.840;2023-04-15T05:12:34;19.93;;;15.17;;
15327;SDS011;7764;51.430;6.840;2023-04-15T05:15:02;22.43;;;15.67;;
15327;SDS011;7764;51.430;6.840;2023-04-15T05:17:29;21.77;;;15.57;;
15327;SDS011;7764;51.430;6.840;2023-04-15T05:19:59;21.67;;;15.57;;
15327;SDS011;7764;51.430;6.840;2023-04-15T05:22:26;22.80;;;15.87;;
15327;SDS011;7764;51.430;6.840;2023-04-15T05:24:52;20.90;;;16.30;;
15327;SDS011;7764;51.430;6.840;2023-04-15T05:27:21;21.10;;;14.70;;
15327;SDS011;7764;51.430;6.840;2023-04-15T05:29:48;21.83;;;15.90;;
15327;SDS011;7764;51.430;6.840;2023-04-15T05:32:15;20.17;;;14.67;;
15327;SDS011;7764;51.430;6.840;2023-04-15T05:34:42;22.23;;;15.37;;
15327;SDS011;7764;51.430;6.840;2023-04-15T05:37:09;20.53;;;15.80;;
15327;SDS011;7764;51.430;6.840;2023-04-15T05:39:36;20.13;;;14.77;;
15327;SDS011;7764;51.430;6.840;2023-04-15T05:42:03;22.50;;;15.07;;
15327;SDS011;7764;51.430;6.840;2023-04-15T05:44:31;21.73;;;14.77;;
15327;SDS011;7764;51.430;6.840;2023-04-15T05:46:58;19.60;;;14.30;;
15327;SDS011;7764;51.430;6.840;2023-04-15T05:49:25;18.87;;;14.10;;
15327;SDS011;7764;51.430;6.840;2023-04-15T05:51:52;17.03;;;12.73;;
15327;SDS011;7764;51.430;6.840;2023-04-15T05:54:19;18.20;;;13.53;;
15327;SDS011;7764;51.430;6.840;2023-04-15T05:56:47;18.37;;;13.27;;
15327;SDS011;7764;51.430;6.840;2023-04-15T05:59:14;17.03;;;12.50;;
15327;SDS011;7764;51.430;6.840;2023-04-15T06:01:42;17.10;;;13.13;;
15327;SDS011;7764;51.430;6.840;2023-04-15T06:04:09;15.73;;;13.10;;
15327;SDS011;7764;51.430;6.840;2023-04-15T06:06:36;17.73;;;13.50;;
15327;SDS011;7764;51.430;6.840;2023-04-15T06:09:03;16.93;;;12.97;;
15327;SDS011;7764;51.430;6.840;2023-04-15T06:11:30;16.80;;;13.67;;
15327;SDS011;7764;51.430;6.840;2023-04-15T06:13:57;18.90;;;14.17;;
15327;SDS011;7764;51.430;6.840;2023-04-15T06:16:23;19.37;;;14.00;;
15327;SDS011;7764;51.430;6.840;2023-04-15T06:18:52;16.43;;;13.63;;
15327;SDS011;7764;51.430;6.840;2023-04-15T06:21:19;18.77;;;14.40;;
15327;SDS011;7764;51.430;6.840;2023-04-15T06:23:46;19.27;;;14.60;;
15327;SDS011;7764;51.430;6.840;2023-04-15T06:26:13;18.67;;;14.30;;
15327;SDS011;7764;51.430;6.840;2023-04-15T06:28:40;19.67;;;14.47;;
15327;SDS011;7764;51.430;6.840;2023-04-15T06:31:06;19.43;;;15.00;;
15327;SDS011;7764;51.430;6.840;2023-04-15T06:33:33;17.43;;;14.40;;
15327;SDS011;7764;51.430;6.840;2023-04-15T06:36:01;20.87;;;14.90;;
15327;SDS011;7764;51.430;6.840;2023-04-15T06:38:28;18.97;;;14.30;;
15327;SDS011;7764;51.430;6.840;2023-04-15T06:40:55;20.33;;;15.03;;
15327;SDS011;7764;51.430;6.840;2023-04-15T06:43:22;19.50;;;14.83;;
15327;SDS011;7764;51.430;6.840;2023-04-15T06:45:49;20.03;;;16.20;;
15327;SDS011;7764;51.430;6.840;2023-04-15T06:48:16;19.30;;;14.80;;
15327;SDS011;7764;51.430;6.840;2023-04-15T06:50:43;20.50;;;15.17;;
15327;SDS011;7764;51.430;6.840;2023-04-15T06:53:11;17.07;;;14.07;;
15327;SDS011;7764;51.430;6.840;2023-04-15T06:55:38;17.20;;;13.70;;
15327;SDS011;7764;51.430;6.840;2023-04-15T06:58:05;19.37;;;14.13;;
15327;SDS011;7764;51.430;6.840;2023-04-15T07:00:32;15.57;;;12.67;;
15327;SDS011;7764;51.430;6.840;2023-04-15T07:02:59;15.70;;;12.77;;
15327;SDS011;7764;51.430;6.840;2023-04-15T07:05:27;16.23;;;12.70;;
15327;SDS011;7764;51.430;6.840;2023-04-15T07:07:55;16.10;;;12.37;;
15327;SDS011;7764;51.430;6.840;2023-04-15T07:10:23;16.43;;;12.83;;
15327;SDS011;7764;51.430;6.840;2023-04-15T07:12:50;16.60;;;12.60;;
15327;SDS011;7764;51.430;6.840;2023-04-15T07:15:16;15.73;;;12.47;;
15327;SDS011;7764;51.430;6.840;2023-04-15T07:17:43;16.73;;;12.30;;
15327;SDS011;7764;51.430;6.840;2023-04-15T07:20:11;15.60;;;11.47;;
15327;SDS011;7764;51.430;6.840;2023-04-15T07:22:38;13.37;;;10.73;;
15327;SDS011;7764;51.430;6.840;2023-04-15T07:25:06;13.43;;;10.60;;
15327;SDS011;7764;51.430;6.840;2023-04-15T07:27:34;15.17;;;11.47;;
15327;SDS011;7764;51.430;6.840;2023-04-15T07:30:01;14.00;;;10.10;;
15327;SDS011;7764;51.430;6.840;2023-04-15T07:32:28;13.33;;;10.60;;
15327;SDS011;7764;51.430;6.840;2023-04-15T07:34:55;13.83;;;10.40;;
15327;SDS011;7764;51.430;6.840;2023-04-15T07:37:22;14.77;;;10.67;;
15327;SDS011;7764;51.430;6.840;2023-04-15T07:39:49;14.23;;;10.73;;
15327;SDS011;7764;51.430;6.840;2023-04-15T07:42:16;14.17;;;10.70;;
15327;SDS011;7764;51.430;6.840;2023-04-15T07:44:45;12.70;;;10.17;;
15327;SDS011;7764;51.430;6.840;2023-04-15T07:47:11;13.70;;;9.93;;
15327;SDS011;7764;51.430;6.840;2023-04-15T07:49:39;14.17;;;10.13;;
15327;SDS011;7764;51.430;6.840;2023-04-15T07:52:07;14.07;;;9.80;;
15327;SDS011;7764;51.430;6.840;2023-04-15T07:54:34;12.47;;;9.53;;
15327;SDS011;7764;51.430;6.840;2023-04-15T07:57:01;14.77;;;9.67;;
15327;SDS011;7764;51.430;6.840;2023-04-15T07:59:28;10.73;;;8.00;;
15327;SDS011;7764;51.430;6.840;2023-04-15T08:01:58;11.87;;;8.83;;
15327;SDS011;7764;51.430;6.840;2023-04-15T08:04:25;11.17;;;8.27;;
15327;SDS011;7764;51.430;6.840;2023-04-15T08:06:52;10.23;;;7.83;;
15327;SDS011;7764;51.430;6.840;2023-04-15T08:09:19;11.00;;;8.53;;
15327;SDS011;7764;51.430;6.840;2023-04-15T08:11:47;10.43;;;8.30;;
15327;SDS011;7764;51.430;6.840;2023-04-15T08:14:14;11.40;;;8.23;;
15327;SDS011;7764;51.430;6.840;2023-04-15T08:16:41;11.53;;;8.60;;
15327;SDS011;7764;51.430;6.840;2023-04-15T08:19:10;10.87;;;8.80;;
15327;SDS011;7764;51.430;6.840;2023-04-15T08:21:36;12.43;;;8.53;;
15327;SDS011;7764;51.430;6.840;2023-04-15T08:24:04;9.63;;;6.10;;
15327;SDS011;7764;51.430;6.840;2023-04-15T08:26:32;9.33;;;6.37;;
15327;SDS011;7764;51.430;6.840;2023-04-15T08:28:58;8.37;;;5.93;;
15327;SDS011;7764;51.430;6.840;2023-04-15T08:31:25;9.90;;;6.37;;
15327;SDS011;7764;51.430;6.840;2023-04-15T08:33:55;7.97;;;5.87;;
15327;SDS011;7764;51.430;6.840;2023-04-15T08:36:23;7.13;;;5.03;;
15327;SDS011;7764;51.430;6.840;2023-04-15T08:38:51;11.33;;;5.67;;
15327;SDS011;7764;51.430;6.840;2023-04-15T08:41:19;7.07;;;4.97;;
15327;SDS011;7764;51.430;6.840;2023-04-15T08:43:50;8.03;;;5.73;;
15327;SDS011;7764;51.430;6.840;2023-04-15T08:46:19;7.20;;;5.23;;
15327;SDS011;7764;51.430;6.840;2023-04-15T08:48:47;9.20;;;5.50;;
15327;SDS011;7764;51.430;6.840;2023-04-15T08:51:15;9.90;;;5.37;;
15327;SDS011;7764;51.430;6.840;2023-04-15T08:53:43;7.87;;;5.43;;
15327;SDS011;7764;51.430;6.840;2023-04-15T08:56:12;6.97;;;5.03;;
15327;SDS011;7764;51.430;6.840;2023-04-15T08:58:40;8.87;;;4.97;;
15327;SDS011;7764;51.430;6.840;2023-04-15T09:01:09;7.60;;;5.23;;
15327;SDS011;7764;51.430;6.840;2023-04-15T09:03:37;7.83;;;5.10;;
15327;SDS011;7764;51.430;6.840;2023-04-15T09:06:04;7.70;;;5.43;;
15327;SDS011;7764;51.430;6.840;2023-04-15T09:08:31;7.87;;;5.47;;
15327;SDS011;7764;51.430;6.840;2023-04-15T09:11:01;7.93;;;4.33;;
15327;SDS011;7764;51.430;6.840;2023-04-15T09:13:28;6.23;;;4.30;;
15327;SDS011;7764;51.430;6.840;2023-04-15T09:15:55;9.43;;;4.60;;
15327;SDS011;7764;51.430;6.840;2023-04-15T09:18:26;8.13;;;4.90;;
15327;SDS011;7764;51.430;6.840;2023-04-15T09:20:54;6.87;;;4.60;;
15327;SDS011;7764;51.430;6.840;2023-04-15T09:23:21;8.83;;;4.60;;
15327;SDS011;7764;51.430;6.840;2023-04-15T09:25:48;6.83;;;4.00;;
15327;SDS011;7764;51.430;6.840;2023-04-15T09:28:23;9.33;;;4.50;;
15327;SDS011;7764;51.430;6.840;2023-04-15T09:30:52;6.43;;;4.13;;
15327;SDS011;7764;51.430;6.840;2023-04-15T09:33:21;5.60;;;4.03;;
15327;SDS011;7764;51.430;6.840;2023-04-15T09:35:55;6.57;;;4.53;;
15327;SDS011;7764;51.430;6.840;2023-04-15T09:38:23;7.93;;;4.33;;
15327;SDS011;7764;51.430;6.840;2023-04-15T09:40:50;6.53;;;4.37;;
15327;SDS011;7764;51.430;6.840;2023-04-15T09:43:17;7.90;;;5.20;;
15327;SDS011;7764;51.430;6.840;2023-04-15T09:45:47;8.03;;;5.40;;
15327;SDS011;7764;51.430;6.840;2023-04-15T09:48:16;8.27;;;5.77;;
15327;SDS011;7764;51.430;6.840;2023-04-15T09:50:45;7.60;;;5.90;;
15327;SDS011;7764;51.430;6.840;2023-04-15T09:53:17;9.97;;;6.93;;
15327;SDS011;7764;51.430;6.840;2023-04-15T09:55:45;9.80;;;7.07;;
15327;SDS011;7764;51.430;6.840;2023-04-15T09:58:18;8.57;;;6.80;;
15327;SDS011;7764;51.430;6.840;2023-04-15T10:00:47;11.73;;;7.70;;
15327;SDS011;7764;51.430;6.840;2023-04-15T10:03:16;9.17;;;7.20;;
15327;SDS011;7764;51.430;6.840;2023-04-15T10:05:46;9.93;;;6.77;;
15327;SDS011;7764;51.430;6.840;2023-04-15T10:08:14;8.00;;;6.13;;
15327;SDS011;7764;51.430;6.840;2023-04-15T10:10:43;8.30;;;6.07;;
15327;SDS011;7764;51.430;6.840;2023-04-15T10:13:12;7.23;;;5.63;;
15327;SDS011;7764;51.430;6.840;2023-04-15T10:15:40;7.80;;;5.93;;
15327;SDS011;7764;51.430;6.840;2023-04-15T10:18:12;6.63;;;5.10;;
15327;SDS011;7764;51.430;6.840;2023-04-15T10:20:42;7.67;;;5.83;;
15327;SDS011;7764;51.430;6.840;2023-04-15T10:23:09;7.10;;;5.50;;
15327;SDS011;7764;51.430;6.840;2023-04-15T10:25:37;7.00;;;5.70;;
15327;SDS011;7764;51.430;6.840;2023-04-15T10:28:05;8.20;;;5.80;;
15327;SDS011;7764;51.430;6.840;2023-04-15T10:30:33;7.17;;;5.67;;
15327;SDS011;7764;51.430;6.840;2023-04-15T10:33:01;8.83;;;6.33;;
15327;SDS011;7764;51.430;6.840;2023-04-15T10:35:31;8.50;;;5.40;;
15327;SDS011;7764;51.430;6.840;2023-04-15T10:37:59;8.07;;;5.87;;
15327;SDS011;7764;51.430;6.840;2023-04-15T10:40:27;7.43;;;5.13;;
15327;SDS011;7764;51.430;6.840;2023-04-15T10:42:55;10.03;;;4.90;;
15327;SDS011;7764;51.430;6.840;2023-04-15T10:45:24;8.90;;;5.67;;
15327;SDS011;7764;51.430;6.840;2023-04-15T10:47:53;9.03;;;5.70;;
15327;SDS011;7764;51.430;6.840;2023-04-15T10:50:21;9.13;;;6.10;;
15327;SDS011;7764;51.430;6.840;2023-04-15T10:52:52;8.47;;;6.50;;
15327;SDS011;7764;51.430;6.840;2023-04-15T10:55:19;7.67;;;5.87;;
15327;SDS011;7764;51.430;6.840;2023-04-15T10:57:50;10.00;;;6.00;;
15327;SDS011;7764;51.430;6.840;2023-04-15T11:00:19;8.30;;;6.17;;
15327;SDS011;7764;51.430;6.840;2023-04-15T11:02:47;8.57;;;6.03;;
15327;SDS011;7764;51.430;6.840;2023-04-15T11:05:18;8.33;;;6.00;;
15327;SDS011;7764;51.430;6.840;2023-04-15T11:07:47;8.80;;;6.63;;
15327;SDS011;7764;51.430;6.840;2023-04-15T11:13:27;7.30;;;5.50;;
15327;SDS011;7764;51.430;6.840;2023-04-15T11:15:59;9.37;;;7.27;;
15327;SDS011;7764;51.430;6.840;2023-04-15T11:18:30;8.20;;;5.50;;
15327;SDS011;7764;51.430;6.840;2023-04-15T11:20:58;7.97;;;5.30;;
15327;SDS011;7764;51.430;6.840;2023-04-15T11:23:28;6.80;;;5.20;;
15327;SDS011;7764;51.430;6.840;2023-04-15T11:25:58;9.20;;;5.27;;
15327;SDS011;7764;51.430;6.840;2023-04-15T11:28:26;6.90;;;4.80;;
15327;SDS011;7764;51.430;6.840;2023-04-15T11:30:55;7.07;;;4.90;;
15327;SDS011;7764;51.430;6.840;2023-04-15T11:33:23;6.00;;;4.13;;
15327;SDS011;7764;51.430;6.840;2023-04-15T11:35:51;6.10;;;4.70;;
15327;SDS011;7764;51.430;6.840;2023-04-15T11:38:19;5.87;;;4.33;;
15327;SDS011;7764;51.430;6.840;2023-04-15T11:40:46;7.67;;;5.07;;
15327;SDS011;7764;51.430;6.840;2023-04-15T11:43:17;7.13;;;5.30;;
15327;SDS011;7764;51.430;6.840;2023-04-15T11:45:52;8.40;;;5.80;;
15327;SDS011;7764;51.430;6.840;2023-04-15T11:48:20;7.20;;;5.60;;
15327;SDS011;7764;51.430;6.840;2023-04-15T11:50:52;7.27;;;5.03;;
15327;SDS011;7764;51.430;6.840;2023-04-15T11:53:20;7.23;;;5.17;;
15327;SDS011;7764;51.430;6.840;2023-04-15T11:55:48;8.33;;;5.50;;
15327;SDS011;7764;51.430;6.840;2023-04-15T11:58:19;8.00;;;5.87;;
15327;SDS011;7764;51.430;6.840;2023-04-15T12:00:47;7.57;;;5.53;;
15327;SDS011;7764;51.430;6.840;2023-04-15T12:03:21;8.27;;;5.90;;
15327;SDS011;7764;51.430;6.840;2023-04-15T12:06:05;8.40;;;5.97;;
15327;SDS011;7764;51.430;6.840;2023-04-15T12:08:47;8.00;;;5.43;;
15327;SDS011;7764;51.430;6.840;2023-04-15T12:11:15;7.67;;;5.60;;
15327;SDS011;7764;51.430;6.840;2023-04-15T12:13:44;7.53;;;5.40;;
15327;SDS011;7764;51.430;6.840;2023-04-15T12:16:12;7.93;;;4.97;;
15327;SDS011;7764;51.430;6.840;2023-04-15T12:18:43;6.53;;;4.90;;
15327;SDS011;7764;51.430;6.840;2023-04-15T12:21:11;6.83;;;4.60;;
15327;SDS011;7764;51.430;6.840;2023-04-15T12:23:38;7.00;;;4.67;;
15327;SDS011;7764;51.430;6.840;2023-04-15T12:26:12;6.63;;;4.33;;
15327;SDS011;7764;51.430;6.840;2023-04-15T12:28:39;6.07;;;4.43;;
15327;SDS011;7764;51.430;6.840;2023-04-15T12:31:08;5.53;;;3.70;;
15327;SDS011;7764;51.430;6.840;2023-04-15T12:33:35;6.47;;;4.60;;
15327;SDS011;7764;51.430;6.840;2023-04-15T12:36:03;5.63;;;4.13;;
15327;SDS011;7764;51.430;6.840;2023-04-15T12:38:30;6.40;;;4.53;;
15327;SDS011;7764;51.430;6.840;2023-04-15T12:40:57;7.37;;;4.43;;
15327;SDS011;7764;51.430;6.840;2023-04-15T12:43:24;6.40;;;4.30;;
15327;SDS011;7764;51.430;6.840;2023-04-15T12:45:51;6.00;;;4.63;;
15327;SDS011;7764;51.430;6.840;2023-04-15T12:48:19;6.57;;;4.50;;
15327;SDS011;7764;51.430;6.840;2023-04-15T12:50:46;7.70;;;4.70;;
15327;SDS011;7764;51.430;6.840;2023-04-15T12:53:13;6.03;;;4.40;;
15327;SDS011;7764;51.430;6.840;2023-04-15T12:55:40;6.57;;;4.07;;
15327;SDS011;7764;51.430;6.840;2023-04-15T12:58:07;6.60;;;4.00;;
15327;SDS011;7764;51.430;6.840;2023-04-15T13:00:35;21.07;;;13.50;;
15327;SDS011;7764;51.430;6.840;2023-04-15T13:03:02;6.60;;;4.13;;
15327;SDS011;7764;51.430;6.840;2023-04-15T13:05:30;6.87;;;4.63;;
15327;SDS011;7764;51.430;6.840;2023-04-15T13:07:57;5.97;;;4.57;;
15327;SDS011;7764;51.430;6.840;2023-04-15T13:10:24;7.20;;;4.57;;
15327;SDS011;7764;51.430;6.840;2023-04-15T13:12:52;6.80;;;4.90;;
15327;SDS011;7764;51.430;6.840;2023-04-15T13:15:20;8.83;;;5.03;;
15327;SDS011;7764;51.430;6.840;2023-04-15T13:17:47;7.73;;;5.80;;
15327;SDS011;7764;51.430;6.840;2023-04-15T13:20:14;8.37;;;5.30;;
15327;SDS011;7764;51.430;6.840;2023-04-15T13:22:42;9.20;;;5.80;;
15327;SDS011;7764;51.430;6.840;2023-04-15T13:25:09;7.37;;;4.87;;
15327;SDS011;7764;51.430;6.840;2023-04-15T13:27:36;6.70;;;4.70;;
15327;SDS011;7764;51.430;6.840;2023-04-15T13:30:03;9.00;;;5.40;;
15327;SDS011;7764;51.430;6.840;2023-04-15T13:32:31;7.53;;;4.73;;
15327;SDS011;7764;51.430;6.840;2023-04-15T13:34:58;7.13;;;4.90;;
15327;SDS011;7764;51.430;6.840;2023-04-15T13:37:25;7.13;;;4.80;;
15327;SDS011;7764;51.430;6.840;2023-04-15T13:39:54;6.97;;;4.47;;
15327;SDS011;7764;51.430;6.840;2023-04-15T13:42:21;7.50;;;5.10;;
15327;SDS011;7764;51.430;6.840;2023-04-15T13:44:48;7.23;;;4.80;;
15327;SDS011;7764;51.430;6.840;2023-04-15T13:47:16;5.10;;;3.90;;
15327;SDS011;7764;51.430;6.840;2023-04-15T13:49:44;6.57;;;4.07;;
15327;SDS011;7764;51.430;6.840;2023-04-15T13:52:11;6.27;;;3.90;;
15327;SDS011;7764;51.430;6.840;2023-04-15T13:54:38;6.43;;;3.90;;
15327;SDS011;7764;51.430;6.840;2023-04-15T13:57:06;6.43;;;3.50;;
15327;SDS011;7764;51.430;6.840;2023-04-15T13:59:33;7.27;;;3.80;;
15327;SDS011;7764;51.430;6.840;2023-04-15T14:02:00;5.57;;;3.90;;
15327;SDS011;7764;51.430;6.840;2023-04-15T14:04:27;5.80;;;3.63;;
15327;SDS011;7764;51.430;6.840;2023-04-15T14:06:54;7.67;;;4.40;;
15327;SDS011;7764;51.430;6.840;2023-04-15T14:09:22;6.90;;;4.40;;
15327;SDS011;7764;51.430;6.840;2023-04-15T14:11:49;6.20;;;3.97;;
15327;SDS011;7764;51.430;6.840;2023-04-15T14:14:17;7.43;;;4.00;;
15327;SDS011;7764;51.430;6.840;2023-04-15T14:16:44;7.70;;;4.33;;
15327;SDS011;7764;51.430;6.840;2023-04-15T14:19:11;7.00;;;4.13;;
15327;SDS011;7764;51.430;6.840;2023-04-15T14:21:38;6.33;;;3.77;;
15327;SDS011;7764;51.430;6.840;2023-04-15T14:24:05;8.73;;;4.53;;
15327;SDS011;7764;51.430;6.840;2023-04-15T14:26:32;5.63;;;4.00;;
15327;SDS011;7764;51.430;6.840;2023-04-15T14:28:59;6.30;;;3.87;;
15327;SDS011;7764;51.430;6.840;2023-04-15T14:31:27;4.93;;;3.60;;
15327;SDS011;7764;51.430;6.840;2023-04-15T14:33:54;5.60;;;3.77;;
15327;SDS011;7764;51.430;6.840;2023-04-15T14:36:21;5.30;;;3.50;;
15327;SDS011;7764;51.430;6.840;2023-04-15T14:38:47;5.47;;;3.47;;
15327;SDS011;7764;51.430;6.840;2023-04-15T14:41:14;5.17;;;3.27;;
15327;SDS011;7764;51.430;6.840;2023-04-15T14:43:41;5.50;;;3.70;;
15327;SDS011;7764;51.430;6.840;2023-04-15T14:46:09;5.93;;;3.33;;
15327;SDS011;7764;51.430;6.840;2023-04-15T14:48:37;5.43;;;3.80;;
15327;SDS011;7764;51.430;6.840;2023-04-15T14:51:04;5.23;;;3.70;;
15327;SDS011;7764;51.430;6.840;2023-04-15T14:53:31;4.87;;;3.40;;